Terminal Aerodrome Forecast
Issued by NWS

Home | Current Version | Previous Version | Graphics & Text | Print | Product List | Glossary On
Versions: 1 2 3 4 5 6 7 8 9 10 11 12 13 14 15 16 17 18 19 20 21
000
FTUS43 KIWX 221600 AAA
TAFSBN
TAF AMD
KSBN 221636Z 2217/2312 25008KT P6SM BKN015
     FM221800 26006KT P6SM BKN040
     FM230900 VRB03KT 5SM BR SCT003
      TEMPO 2309/2312 2SM BR BKN003=

USA.gov is the U.S. government's official web portal to all federal, state and local government web resources and services.